createdAt,value
2019-01-26T20:22:42.910Z,19.95
2019-01-26T20:28:03.924Z,15.47
2019-01-26T20:32:50.241Z,9.85
2019-01-26T20:37:58.542Z,13.73
2019-01-26T20:43:05.640Z,11.02
2019-01-26T20:48:13.865Z,16.27
2019-01-26T20:53:34.826Z,12.64
2019-01-26T20:58:23.178Z,12.61
2019-01-26T21:03:30.403Z,8.15
2019-01-26T21:08:37.728Z,8.98
2019-01-26T21:18:50.426Z,7.60
2019-01-26T21:23:53.627Z,6.27
2019-01-26T21:29:01.097Z,5.53
2019-01-26T21:34:09.366Z,5.38
2019-01-26T21:39:29.544Z,8.64
2019-01-26T21:44:30.780Z,8.86
2019-01-26T21:49:31.864Z,5.49
2019-01-26T21:54:32.981Z,9.19
2019-01-26T21:59:34.092Z,7.23
2019-01-26T22:04:34.207Z,6.58
2019-01-26T22:09:34.486Z,5.90
2019-01-26T22:14:35.576Z,7.29
2019-01-26T22:19:34.866Z,7.09
2019-01-26T22:24:34.866Z,6.97
2019-01-26T22:29:36.078Z,4.87
2019-01-26T22:34:36.219Z,8.58
2019-01-26T22:39:36.356Z,6.36
2019-01-26T22:44:24.408Z,8.05
2019-01-26T22:49:45.533Z,5.55
2019-01-26T22:54:45.613Z,9.06
2019-01-26T22:59:46.672Z,9.64
2019-01-26T23:04:47.632Z,9.33
2019-01-26T23:09:49.082Z,9.37
2019-01-26T23:14:36.140Z,8.52
2019-01-26T23:19:57.169Z,9.78
2019-01-26T23:24:58.128Z,13.29
2019-01-26T23:29:59.249Z,12.53
2019-01-26T23:34:46.438Z,17.22
2019-01-26T23:39:54.919Z,14.81
2019-01-26T23:45:15.033Z,11.39
2019-01-26T23:50:15.247Z,13.57
2019-01-26T23:55:15.224Z,8.95
